createdAt,value
2019-02-15T05:58:11.265Z,3
2019-02-15T06:04:11.648Z,7
2019-02-15T06:07:11.837Z,10
2019-02-15T06:09:11.918Z,13
2019-02-15T06:10:11.982Z,17
2019-02-15T06:11:42.064Z,20
2019-02-15T06:12:12.039Z,23
2019-02-15T06:13:12.153Z,27
2019-02-15T06:13:42.173Z,30
2019-02-15T06:14:12.220Z,33
2019-02-15T06:15:14.946Z,37
2019-02-15T06:15:42.314Z,43
2019-02-15T06:16:12.302Z,47
2019-02-15T06:16:42.366Z,50
2019-02-15T06:17:12.411Z,53
2019-02-15T06:17:42.455Z,60
2019-02-15T06:18:12.461Z,63
2019-02-15T06:18:42.532Z,70
2019-02-15T06:19:12.512Z,77
2019-02-15T06:19:42.570Z,83
2019-02-15T06:20:12.580Z,90
2019-02-15T06:20:42.564Z,97
2019-02-15T06:21:12.679Z,103
2019-02-15T06:21:43.216Z,113
2019-02-15T06:22:12.709Z,120
2019-02-15T06:22:42.753Z,130
2019-02-15T06:23:12.768Z,140
2019-02-15T06:23:42.748Z,150
2019-02-15T06:24:12.869Z,163
2019-02-15T06:24:42.881Z,173
2019-02-15T06:25:12.901Z,187
2019-02-15T06:25:43.026Z,200
2019-02-15T06:26:12.994Z,213
2019-02-15T06:26:43.017Z,223
2019-02-15T06:27:12.963Z,240
2019-02-15T06:27:43.030Z,253
2019-02-15T06:28:13.075Z,270
2019-02-15T06:28:43.079Z,287
2019-02-15T06:29:13.127Z,303
2019-02-15T06:29:43.165Z,323
2019-02-15T06:30:13.211Z,340
2019-02-15T06:30:43.210Z,360
2019-02-15T06:31:13.266Z,380
2019-02-15T06:31:43.270Z,403
2019-02-15T06:32:13.333Z,423
2019-02-15T06:32:43.334Z,440
2019-02-15T06:33:13.389Z,463
2019-02-15T06:33:43.396Z,487
2019-02-15T06:34:13.448Z,510
2019-02-15T06:34:43.526Z,533
2019-02-15T06:35:13.478Z,557
2019-02-15T06:35:43.510Z,580
2019-02-15T06:36:13.532Z,603
2019-02-15T06:36:43.544Z,627
2019-02-15T06:37:13.657Z,650
2019-02-15T06:37:43.702Z,673
2019-02-15T06:38:13.641Z,700
2019-02-15T06:38:43.664Z,727
2019-02-15T06:39:13.715Z,750
2019-02-15T06:39:43.784Z,777
2019-02-15T06:40:13.766Z,807
2019-02-15T06:40:43.821Z,833
2019-02-15T06:41:13.821Z,857
2019-02-15T06:41:43.880Z,883
2019-02-15T06:42:13.900Z,913
2019-02-15T06:42:43.914Z,940
2019-02-15T06:43:13.973Z,970
2019-02-15T06:43:43.984Z,997
2019-02-15T06:44:14.005Z,1023
2019-02-15T06:44:44.065Z,1053
2019-02-15T06:45:14.095Z,1080
2019-02-15T06:45:44.112Z,1110
2019-02-15T06:46:14.129Z,1137
2019-02-15T06:46:44.166Z,1167
2019-02-15T06:47:14.215Z,1197
2019-02-15T06:47:44.279Z,1227
2019-02-15T06:48:14.257Z,1253
2019-02-15T06:48:44.326Z,1280
2019-02-15T06:49:14.376Z,1310
2019-02-15T06:49:44.447Z,1340
2019-02-15T06:50:14.447Z,1370
2019-02-15T06:50:44.436Z,1400
2019-02-15T06:51:14.497Z,1427
2019-02-15T06:51:44.561Z,1457
2019-02-15T06:52:14.499Z,1487
2019-02-15T06:52:44.590Z,1513
2019-02-15T06:53:14.583Z,1543
2019-02-15T06:53:44.657Z,1570
2019-02-15T06:54:14.664Z,1600
2019-02-15T06:54:44.719Z,1630
2019-02-15T06:55:14.771Z,1660
2019-02-15T06:55:44.712Z,1690
2019-02-15T06:56:14.749Z,1717
2019-02-15T06:56:44.832Z,1743
2019-02-15T06:57:14.823Z,1773
2019-02-15T06:57:44.901Z,1803
2019-02-15T06:58:14.924Z,1833
2019-02-15T06:58:45.736Z,1860
2019-02-15T06:59:14.983Z,1887
2019-02-15T06:59:45.049Z,1917
2019-02-15T07:00:14.999Z,1940
2019-02-15T07:00:45.030Z,1967
2019-02-15T07:01:15.103Z,1993
2019-02-15T07:01:45.151Z,2020
2019-02-15T07:02:15.191Z,2050
2019-02-15T07:02:45.201Z,2077
2019-02-15T07:03:15.220Z,2103
2019-02-15T07:03:45.250Z,2130
2019-02-15T07:04:15.325Z,2150
2019-02-15T07:04:45.411Z,2177
2019-02-15T07:05:15.352Z,2203
2019-02-15T07:05:45.416Z,2230
2019-02-15T07:06:15.411Z,2253
2019-02-15T07:06:45.410Z,2280
2019-02-15T07:07:15.474Z,2303
2019-02-15T07:07:45.714Z,2330
2019-02-15T07:08:15.478Z,2350
2019-02-15T07:08:45.570Z,2373
2019-02-15T07:09:15.625Z,2397
2019-02-15T07:09:45.686Z,2423
2019-02-15T07:10:15.658Z,2447
2019-02-15T07:10:45.691Z,2470
2019-02-15T07:11:15.742Z,2493
2019-02-15T07:11:45.754Z,2520
2019-02-15T07:12:15.766Z,2547
2019-02-15T07:12:45.859Z,2563
2019-02-15T07:13:15.794Z,2587
2019-02-15T07:13:45.865Z,2607
2019-02-15T07:14:15.849Z,2630
2019-02-15T07:14:45.986Z,2653
2019-02-15T07:15:15.961Z,2673
2019-02-15T07:15:45.990Z,2697
2019-02-15T07:16:16.021Z,2720
2019-02-15T07:16:46.094Z,2740
2019-02-15T07:17:16.087Z,2760
2019-02-15T07:17:46.123Z,2777
2019-02-15T07:18:16.143Z,2800
2019-02-15T07:18:46.181Z,2823
2019-02-15T07:19:16.192Z,2843
2019-02-15T07:19:46.241Z,2863
2019-02-15T07:20:16.237Z,2883
2019-02-15T07:20:47.191Z,2907
2019-02-15T07:21:16.325Z,2927
2019-02-15T07:21:46.352Z,2947
2019-02-15T07:22:16.397Z,2963
2019-02-15T07:22:51.914Z,2987
2019-02-15T07:23:16.461Z,3000
2019-02-15T07:23:46.478Z,3020
2019-02-15T07:24:16.529Z,3037
2019-02-15T07:24:47.241Z,3057
2019-02-15T07:25:16.575Z,3077
2019-02-15T07:25:46.578Z,3097
2019-02-15T07:26:16.600Z,3117
2019-02-15T07:26:46.646Z,3133
2019-02-15T07:27:16.735Z,3150
2019-02-15T07:27:46.676Z,3170
2019-02-15T07:28:16.711Z,3187
2019-02-15T07:28:46.745Z,3200
2019-02-15T07:29:16.774Z,3217
2019-02-15T07:29:46.986Z,3237
2019-02-15T07:30:16.905Z,3253
2019-02-15T07:30:46.865Z,3270
2019-02-15T07:31:16.894Z,3290
2019-02-15T07:31:47.141Z,3307
2019-02-15T07:32:16.954Z,3323
2019-02-15T07:32:46.996Z,3337
2019-02-15T07:33:17.012Z,3353
2019-02-15T07:33:47.057Z,3370
2019-02-15T07:34:17.074Z,3387
2019-02-15T07:34:47.151Z,3403
2019-02-15T07:35:17.175Z,3417
2019-02-15T07:35:47.205Z,3433
2019-02-15T07:36:17.245Z,3450
2019-02-15T07:36:47.821Z,3467
2019-02-15T07:37:17.345Z,3480
2019-02-15T07:37:47.418Z,3497
2019-02-15T07:38:17.377Z,3513
2019-02-15T07:38:47.406Z,3580
2019-02-15T07:39:17.475Z,4137
2019-02-15T07:39:47.512Z,4540
2019-02-15T07:40:17.485Z,5080
2019-02-15T07:40:47.513Z,5313
2019-02-15T07:41:17.551Z,5157
2019-02-15T07:41:47.590Z,5193
2019-02-15T07:42:17.619Z,5030
2019-02-15T07:42:47.641Z,4753
2019-02-15T07:43:17.680Z,4580
2019-02-15T07:43:47.730Z,4643
2019-02-15T07:44:17.734Z,4867
2019-02-15T07:44:47.808Z,5350
2019-02-15T07:45:18.030Z,5787
2019-02-15T07:45:47.789Z,6437
2019-02-15T07:46:17.816Z,6927
2019-02-15T07:46:48.052Z,6893
2019-02-15T07:47:17.956Z,6607
2019-02-15T07:47:48.135Z,6000
2019-02-15T07:48:17.989Z,5767
2019-02-15T07:48:48.044Z,5813
2019-02-15T07:49:26.316Z,6870
2019-02-15T07:49:48.122Z,7793
2019-02-15T07:50:18.141Z,8467
2019-02-15T07:50:48.127Z,8507
2019-02-15T07:51:18.170Z,7920
2019-02-15T07:51:48.188Z,6890
2019-02-15T07:52:18.209Z,5873
2019-02-15T07:52:48.218Z,5197
2019-02-15T07:53:18.296Z,5083
2019-02-15T07:53:48.303Z,4937
2019-02-15T07:54:18.342Z,5013
2019-02-15T07:54:48.383Z,5290
2019-02-15T07:55:18.404Z,5753
2019-02-15T07:55:48.410Z,6163
2019-02-15T07:56:18.490Z,6630
2019-02-15T07:56:48.660Z,7243
2019-02-15T07:57:18.499Z,7500
2019-02-15T07:57:48.568Z,8097
2019-02-15T07:58:18.546Z,8713
2019-02-15T07:58:48.606Z,9377
2019-02-15T07:59:18.839Z,10293
2019-02-15T07:59:48.708Z,11093
2019-02-15T08:00:18.664Z,12037
2019-02-15T08:00:48.733Z,12910
2019-02-15T08:01:18.734Z,13347
2019-02-15T08:01:48.785Z,13057
2019-02-15T08:02:18.804Z,12107
2019-02-15T08:02:48.866Z,11363
2019-02-15T08:03:18.909Z,10817
2019-02-15T08:03:48.985Z,10357
2019-02-15T08:04:18.984Z,9240
2019-02-15T08:04:49.013Z,7903
2019-02-15T08:05:18.973Z,7177
2019-02-15T08:05:49.041Z,7623
2019-02-15T08:06:19.100Z,8773
2019-02-15T08:06:49.120Z,10183
2019-02-15T08:07:19.162Z,10717
2019-02-15T08:07:49.164Z,10947
2019-02-15T08:08:19.212Z,10387
2019-02-15T08:08:49.270Z,10380
2019-02-15T08:09:19.270Z,9773
2019-02-15T08:09:49.319Z,10140
2019-02-15T08:10:19.304Z,11097
2019-02-15T08:10:49.364Z,12027
2019-02-15T08:11:49.452Z,11947
2019-02-15T08:12:19.443Z,12510
2019-02-15T08:12:49.467Z,13360
2019-02-15T08:13:19.500Z,14353
2019-02-15T08:13:49.535Z,14013
2019-02-15T08:14:19.564Z,13173
2019-02-15T08:14:49.611Z,12163
2019-02-15T08:15:19.618Z,10663
2019-02-15T08:15:51.676Z,9830
2019-02-15T08:16:19.672Z,9177
2019-02-15T08:16:49.701Z,8027
2019-02-15T08:17:19.742Z,7103
2019-02-15T08:17:49.751Z,6497
2019-02-15T08:18:19.800Z,6687
2019-02-15T08:18:49.838Z,7537
2019-02-15T08:19:21.225Z,8457
2019-02-15T08:19:49.902Z,9127
2019-02-15T08:20:19.904Z,9877
2019-02-15T08:20:50.001Z,9267
2019-02-15T08:21:19.985Z,8370
2019-02-15T08:21:50.002Z,6943
2019-02-15T08:22:20.100Z,5897
2019-02-15T08:22:50.059Z,5297
2019-02-15T08:23:20.114Z,5310
2019-02-15T08:23:50.136Z,6010
2019-02-15T08:24:20.198Z,8073
2019-02-15T08:24:50.277Z,10497
2019-02-15T08:25:20.313Z,12097
2019-02-15T08:25:50.259Z,13323
2019-02-15T08:26:20.334Z,11717
2019-02-15T08:26:50.367Z,10323
2019-02-15T08:27:20.382Z,10187
2019-02-15T08:27:50.411Z,11320
2019-02-15T08:28:20.450Z,12640
2019-02-15T08:28:50.501Z,13263
2019-02-15T08:29:20.488Z,13087
2019-02-15T08:29:50.594Z,12910
2019-02-15T08:30:22.024Z,13083
2019-02-15T08:30:50.601Z,13197
2019-02-15T08:31:20.583Z,13077
2019-02-15T08:31:50.658Z,11533
2019-02-15T08:32:20.640Z,10380
2019-02-15T08:32:50.677Z,10743
2019-02-15T08:33:20.771Z,11567
2019-02-15T08:33:50.826Z,13053
2019-02-15T08:34:20.772Z,14403
2019-02-15T08:34:50.857Z,15967
2019-02-15T08:35:20.870Z,16793
2019-02-15T08:35:50.855Z,15953
2019-02-15T08:36:20.941Z,15643
2019-02-15T08:36:50.975Z,16523
2019-02-15T08:37:20.974Z,17143
2019-02-15T08:37:51.034Z,18973
2019-02-15T08:38:21.050Z,19153
2019-02-15T08:38:51.102Z,18587
2019-02-15T08:39:21.125Z,18160
2019-02-15T08:39:51.216Z,18247
2019-02-15T08:40:21.191Z,18223
2019-02-15T08:40:51.199Z,18393
2019-02-15T08:41:21.245Z,18450
2019-02-15T08:42:01.145Z,18460
2019-02-15T08:42:21.313Z,18533
2019-02-15T08:42:51.582Z,18547
2019-02-15T08:43:21.391Z,18637
2019-02-15T08:43:51.410Z,18017
2019-02-15T08:44:21.426Z,17117
2019-02-15T08:44:51.684Z,17123
2019-02-15T08:45:21.478Z,17293
2019-02-15T08:46:00.265Z,17230
2019-02-15T08:46:21.555Z,16883
2019-02-15T08:46:51.560Z,16737
2019-02-15T08:47:21.609Z,16217
2019-02-15T08:47:51.623Z,16133
2019-02-15T08:48:21.681Z,15443
2019-02-15T08:48:51.705Z,15373
2019-02-15T08:49:21.879Z,16077
2019-02-15T08:49:51.792Z,16663
2019-02-15T08:50:21.800Z,17707
2019-02-15T08:50:51.825Z,18920
2019-02-15T08:51:21.958Z,18373
2019-02-15T08:51:51.885Z,18120
2019-02-15T08:52:21.917Z,18803
2019-02-15T08:52:51.944Z,19907
2019-02-15T08:53:21.981Z,20237
2019-02-15T08:53:52.027Z,19833
2019-02-15T08:54:22.002Z,19693
2019-02-15T08:54:52.115Z,19853
2019-02-15T08:55:22.110Z,20677
2019-02-15T08:55:52.177Z,21137
2019-02-15T08:56:22.169Z,21600
2019-02-15T08:56:52.217Z,21340
2019-02-15T08:57:22.234Z,20907
2019-02-15T08:57:52.273Z,20827
2019-02-15T08:58:22.283Z,20837
2019-02-15T08:58:52.286Z,21693
2019-02-15T08:59:22.323Z,22207
2019-02-15T08:59:52.366Z,22650
2019-02-15T09:00:22.362Z,22740
2019-02-15T09:00:52.398Z,22847
2019-02-15T09:01:22.456Z,22897
2019-02-15T09:01:52.468Z,22943
2019-02-15T09:02:22.543Z,23027
2019-02-15T09:02:52.579Z,23047
2019-02-15T09:03:22.551Z,23070
2019-02-15T09:03:52.604Z,22063
2019-02-15T09:04:22.634Z,21653
2019-02-15T09:04:52.665Z,21877
2019-02-15T09:05:22.675Z,22957
2019-02-15T09:05:52.714Z,23540
2019-02-15T09:06:22.776Z,23603
2019-02-15T09:06:52.773Z,23663
2019-02-15T09:07:22.819Z,23783
2019-02-15T09:07:52.823Z,23827
2019-02-15T09:08:22.859Z,23890
2019-02-15T09:08:52.904Z,23913
2019-02-15T09:09:22.925Z,24007
2019-02-15T09:09:52.976Z,23970
2019-02-15T09:10:22.985Z,24117
2019-02-15T09:10:53.050Z,24223
2019-02-15T09:11:23.109Z,24313
2019-02-15T09:11:53.157Z,24370
2019-02-15T09:12:23.173Z,24453
2019-02-15T09:12:53.177Z,24520
2019-02-15T09:13:23.183Z,24603
2019-02-15T09:13:53.260Z,24607
2019-02-15T09:14:23.285Z,24747
2019-02-15T09:14:53.354Z,24780
2019-02-15T09:15:23.332Z,24913
2019-02-15T09:15:53.363Z,24937
2019-02-15T09:16:23.444Z,25040
2019-02-15T09:16:53.436Z,25077
2019-02-15T09:17:23.455Z,25113
2019-02-15T09:17:53.506Z,25290
2019-02-15T09:18:23.512Z,25327
2019-02-15T09:18:53.576Z,25363
2019-02-15T09:19:23.589Z,25450
2019-02-15T09:19:53.604Z,25483
2019-02-15T09:20:23.647Z,25567
2019-02-15T09:20:53.658Z,25660
2019-02-15T09:21:23.710Z,25723
2019-02-15T09:21:53.734Z,25817
2019-02-15T09:22:23.767Z,25843
2019-02-15T09:22:53.804Z,25960
2019-02-15T09:23:23.807Z,26000
2019-02-15T09:23:53.874Z,26120
2019-02-15T09:24:23.895Z,26203
2019-02-15T09:24:53.951Z,26167
2019-02-15T09:25:23.927Z,26317
2019-02-15T09:25:54.012Z,26433
2019-02-15T09:26:24.020Z,26450
2019-02-15T09:26:54.077Z,26543
2019-02-15T09:27:24.078Z,26593
2019-02-15T09:27:54.092Z,26640
2019-02-15T09:28:24.137Z,26663
2019-02-15T09:28:54.167Z,26763
2019-02-15T09:29:24.190Z,26770
2019-02-15T09:29:54.183Z,26927
2019-02-15T09:30:24.258Z,26930
2019-02-15T09:30:54.294Z,26993
2019-02-15T09:31:24.331Z,27013
2019-02-15T09:31:54.352Z,27090
2019-02-15T09:32:24.380Z,27170
2019-02-15T09:32:54.393Z,27187
2019-02-15T09:33:24.447Z,27333
2019-02-15T09:33:54.430Z,27400
2019-02-15T09:34:24.518Z,27397
2019-02-15T09:34:54.489Z,27480
2019-02-15T09:35:24.573Z,27603
2019-02-15T09:35:54.601Z,27627
2019-02-15T09:36:24.631Z,27703
2019-02-15T09:36:54.672Z,27717
2019-02-15T09:37:24.691Z,27823
2019-02-15T09:37:54.698Z,27737
2019-02-15T09:38:24.762Z,27950
2019-02-15T09:38:54.791Z,28000
2019-02-15T09:39:24.819Z,28003
2019-02-15T09:39:54.868Z,28050
2019-02-15T09:40:24.883Z,28227
2019-02-15T09:40:54.908Z,28160
2019-02-15T09:41:24.971Z,28360
2019-02-15T09:41:54.980Z,28357
2019-02-15T09:42:24.997Z,28460
2019-02-15T09:43:25.060Z,28580
2019-02-15T09:43:55.080Z,28563
2019-02-15T09:44:25.072Z,28597
2019-02-15T09:44:55.194Z,28693
2019-02-15T09:45:25.239Z,28780
2019-02-15T09:45:55.223Z,28777
2019-02-15T09:46:25.247Z,28870
2019-02-15T09:46:55.275Z,28953
2019-02-15T09:47:25.331Z,29007
2019-02-15T09:47:55.362Z,29107
2019-02-15T09:48:25.364Z,29167
2019-02-15T09:48:55.435Z,29160
2019-02-15T09:49:25.409Z,29147
2019-02-15T09:49:55.421Z,29277
2019-02-15T09:50:25.504Z,29317
2019-02-15T09:50:55.567Z,29387
2019-02-15T09:51:25.511Z,29373
2019-02-15T09:51:55.644Z,29413
2019-02-15T09:52:25.591Z,29527
2019-02-15T09:52:55.621Z,29600
2019-02-15T09:53:25.682Z,29583
2019-02-15T09:53:55.693Z,29790
2019-02-15T09:54:25.693Z,29827
2019-02-15T09:54:55.736Z,29803
2019-02-15T09:55:25.780Z,29920
2019-02-15T09:55:55.852Z,29887
2019-02-15T09:56:25.823Z,30033
2019-02-15T09:56:55.841Z,30063
2019-02-15T09:57:25.884Z,30100
2019-02-15T09:57:55.915Z,30210
2019-02-15T09:58:25.936Z,30130
2019-02-15T09:58:55.970Z,30167
2019-02-15T09:59:25.996Z,30383
2019-02-15T09:59:56.032Z,30330
2019-02-15T10:00:26.060Z,30420
2019-02-15T10:00:56.117Z,30427
2019-02-15T10:01:26.164Z,30523
2019-02-15T10:01:56.205Z,30600
2019-02-15T10:02:26.202Z,30553
2019-02-15T10:02:56.258Z,30610
2019-02-15T10:03:26.337Z,30633
2019-02-15T10:03:56.331Z,30677
2019-02-15T10:04:26.299Z,30753
2019-02-15T10:04:56.360Z,30797
2019-02-15T10:05:26.411Z,30847
2019-02-15T10:05:56.483Z,30923
2019-02-15T10:06:26.476Z,31003
2019-02-15T10:06:56.504Z,30987
2019-02-15T10:07:26.528Z,31080
2019-02-15T10:07:56.566Z,31157
2019-02-15T10:08:26.582Z,31207
2019-02-15T10:08:56.685Z,31147
2019-02-15T10:09:26.663Z,31253
2019-02-15T10:09:56.695Z,31307
2019-02-15T10:10:26.760Z,31283
2019-02-15T10:10:56.809Z,31393
2019-02-15T10:11:26.812Z,31453
2019-02-15T10:11:56.818Z,31417
2019-02-15T10:12:26.864Z,31487
2019-02-15T10:12:56.932Z,31533
2019-02-15T10:13:26.908Z,31630
2019-02-15T10:13:56.932Z,31723
2019-02-15T10:14:26.920Z,31783
2019-02-15T10:14:56.998Z,31727
2019-02-15T10:15:27.037Z,31873
2019-02-15T10:15:57.067Z,31843
2019-02-15T10:16:29.834Z,31873
2019-02-15T10:16:57.138Z,31890
2019-02-15T10:17:27.110Z,32057
2019-02-15T10:17:57.211Z,32040
2019-02-15T10:18:27.220Z,32110
2019-02-15T10:18:57.241Z,32143
2019-02-15T10:19:27.283Z,32193
2019-02-15T10:19:57.327Z,32277
2019-02-15T10:20:27.351Z,32310
2019-02-15T10:20:57.422Z,32307
2019-02-15T10:21:27.407Z,32383
2019-02-15T10:21:57.427Z,32417
2019-02-15T10:22:27.505Z,32453
2019-02-15T10:22:57.542Z,32617
2019-02-15T10:23:27.474Z,32517
2019-02-15T10:23:57.571Z,32607
2019-02-15T10:24:27.594Z,32570
2019-02-15T10:24:57.637Z,32653
2019-02-15T10:25:27.645Z,32680
2019-02-15T10:25:57.683Z,32667
2019-02-15T10:26:27.688Z,32723
2019-02-15T10:26:57.739Z,32750
2019-02-15T10:27:27.815Z,32840
2019-02-15T10:27:57.802Z,32887
2019-02-15T10:28:27.845Z,32957
2019-02-15T10:28:57.875Z,32933
2019-02-15T10:29:27.933Z,33030
2019-02-15T10:29:57.890Z,32997
2019-02-15T10:30:27.967Z,33030
2019-02-15T10:30:58.020Z,33063
2019-02-15T10:31:28.021Z,33130
2019-02-15T10:31:58.041Z,33120
2019-02-15T10:32:28.086Z,33193
2019-02-15T10:32:58.116Z,33273
2019-02-15T10:33:28.185Z,33343
2019-02-15T10:33:58.195Z,33380
2019-02-15T10:34:58.222Z,33407
2019-02-15T10:35:28.264Z,33417
2019-02-15T10:35:58.542Z,33503
2019-02-15T10:36:28.304Z,33507
2019-02-15T10:36:58.404Z,33540
2019-02-15T10:37:28.394Z,33590
2019-02-15T10:37:58.417Z,33530
2019-02-15T10:38:28.426Z,33603
2019-02-15T10:38:58.532Z,33610
2019-02-15T10:39:28.462Z,33697
2019-02-15T10:39:58.528Z,33670
2019-02-15T10:40:28.616Z,33703
2019-02-15T10:40:58.635Z,33797
2019-02-15T10:41:28.661Z,33810
2019-02-15T10:41:58.653Z,33850
2019-02-15T10:42:28.660Z,33843
2019-02-15T10:42:58.690Z,33797
2019-02-15T10:43:28.712Z,33923
2019-02-15T10:43:58.758Z,33953
2019-02-15T10:44:28.823Z,33900
2019-02-15T10:44:58.803Z,34043
2019-02-15T10:45:28.836Z,33980
2019-02-15T10:45:58.893Z,33993
2019-02-15T10:46:37.455Z,34117
2019-02-15T10:46:58.927Z,34140
2019-02-15T10:47:28.981Z,34097
2019-02-15T10:47:58.987Z,34180
2019-02-15T10:48:29.017Z,34127
2019-02-15T10:48:59.042Z,34167
2019-02-15T10:49:29.078Z,34223
2019-02-15T10:49:59.146Z,34290
2019-02-15T10:50:29.141Z,34200
2019-02-15T10:50:59.282Z,34193
2019-02-15T10:51:29.254Z,34340
2019-02-15T10:51:59.258Z,34330
2019-02-15T10:52:29.328Z,34403
2019-02-15T10:52:59.374Z,34500
2019-02-15T10:53:29.408Z,34427
2019-02-15T10:54:00.128Z,34503
2019-02-15T10:54:29.474Z,34393
2019-02-15T10:54:59.462Z,34413
2019-02-15T10:55:29.527Z,34473
2019-02-15T10:55:59.642Z,34560
2019-02-15T10:56:29.549Z,34297
2019-02-15T10:56:59.570Z,34543
2019-02-15T10:57:29.627Z,34503
2019-02-15T10:57:59.660Z,34540
2019-02-15T10:58:29.658Z,34507
2019-02-15T10:58:59.718Z,34497
2019-02-15T10:59:29.698Z,34590
2019-02-15T10:59:59.784Z,34603
2019-02-15T11:00:29.816Z,34537
2019-02-15T11:00:59.878Z,34583
2019-02-15T11:01:29.876Z,34640
2019-02-15T11:01:59.885Z,34667
2019-02-15T11:02:29.937Z,34743
2019-02-15T11:02:59.978Z,34643
2019-02-15T11:03:29.998Z,34653
2019-02-15T11:04:00.041Z,34740
2019-02-15T11:04:30.064Z,34757
2019-02-15T11:05:00.118Z,34700
2019-02-15T11:05:30.136Z,34737
2019-02-15T11:06:00.197Z,34703
2019-02-15T11:06:30.199Z,34950
2019-02-15T11:07:00.240Z,34790
2019-02-15T11:07:30.242Z,34730
2019-02-15T11:08:01.247Z,34750
2019-02-15T11:08:30.306Z,34777
2019-02-15T11:09:01.080Z,34750
2019-02-15T11:09:30.410Z,34833
2019-02-15T11:10:00.917Z,34823
2019-02-15T11:10:31.885Z,34887
2019-02-15T11:11:01.090Z,34833
2019-02-15T11:11:30.437Z,34817
2019-02-15T11:12:01.177Z,34893
2019-02-15T11:12:30.553Z,34820
2019-02-15T11:13:00.933Z,34817
2019-02-15T11:13:30.608Z,34920
2019-02-15T11:14:00.727Z,34797
2019-02-15T11:14:30.673Z,34820
2019-02-15T11:15:01.252Z,34850
2019-02-15T11:15:30.739Z,34877
2019-02-15T11:16:00.808Z,34913
2019-02-15T11:16:30.748Z,34797
2019-02-15T11:17:03.095Z,34860
2019-02-15T11:17:30.879Z,34877
2019-02-15T11:18:00.915Z,34867
2019-02-15T11:18:30.931Z,34917
2019-02-15T11:19:01.068Z,34943
2019-02-15T11:19:31.007Z,34873
2019-02-15T11:20:02.546Z,34977
2019-02-15T11:20:31.042Z,34930
2019-02-15T11:21:01.212Z,34950
2019-02-15T11:21:31.107Z,34877
2019-02-15T11:22:01.182Z,34937
2019-02-15T11:22:31.189Z,34917
2019-02-15T11:23:01.154Z,34970
2019-02-15T11:23:31.212Z,34883
2019-02-15T11:24:01.239Z,34850
2019-02-15T11:24:31.289Z,34883
2019-02-15T11:25:01.286Z,34887
2019-02-15T11:25:31.364Z,34990
2019-02-15T11:26:01.381Z,34910
2019-02-15T11:26:31.412Z,34917
2019-02-15T11:27:01.608Z,34940
2019-02-15T11:27:31.487Z,34920
2019-02-15T11:28:01.483Z,34973
2019-02-15T11:28:31.523Z,34967
2019-02-15T11:29:01.591Z,34767
2019-02-15T11:29:31.563Z,34910
2019-02-15T11:30:01.719Z,34923
2019-02-15T11:30:31.623Z,34973
2019-02-15T11:31:01.669Z,34933
2019-02-15T11:31:31.713Z,34907
2019-02-15T11:32:01.701Z,34880
2019-02-15T11:32:31.740Z,34887
2019-02-15T11:33:01.810Z,35047
2019-02-15T11:33:31.833Z,34917
2019-02-15T11:34:01.925Z,34853
2019-02-15T11:34:31.868Z,34913
2019-02-15T11:35:01.963Z,35000
2019-02-15T11:35:31.929Z,34713
2019-02-15T11:36:02.015Z,34860
2019-02-15T11:36:31.986Z,34920
2019-02-15T11:37:02.033Z,34923
2019-02-15T11:37:32.061Z,34790
2019-02-15T11:38:02.073Z,34803
2019-02-15T11:38:32.238Z,34780
2019-02-15T11:39:02.213Z,34793
2019-02-15T11:39:32.423Z,34817
2019-02-15T11:40:02.201Z,34773
2019-02-15T11:40:32.282Z,34760
2019-02-15T11:41:10.673Z,34750
2019-02-15T11:41:32.342Z,34710
2019-02-15T11:42:02.324Z,34787
2019-02-15T11:42:32.412Z,34683
2019-02-15T11:43:02.420Z,34770
2019-02-15T11:43:32.458Z,34673
2019-02-15T11:44:02.443Z,34703
2019-02-15T11:44:32.529Z,34737
2019-02-15T11:45:02.543Z,34660
2019-02-15T11:45:32.590Z,34700
2019-02-15T11:46:02.630Z,34603
2019-02-15T11:46:32.655Z,34697
2019-02-15T11:47:02.670Z,34620
2019-02-15T11:47:32.701Z,34590
2019-02-15T11:48:02.726Z,34543
2019-02-15T11:48:32.772Z,34563
2019-02-15T11:49:02.766Z,34520
2019-02-15T11:49:32.819Z,34443
2019-02-15T11:50:02.902Z,34420
2019-02-15T11:50:32.896Z,34453
2019-02-15T11:51:03.037Z,34433
2019-02-15T11:51:32.960Z,34297
2019-02-15T11:52:02.936Z,34343
2019-02-15T11:52:33.096Z,34450
2019-02-15T11:53:03.063Z,34423
2019-02-15T11:53:33.030Z,34417
2019-02-15T11:54:03.135Z,34373
2019-02-15T11:54:33.149Z,34390
2019-02-15T11:55:03.183Z,34260
2019-02-15T11:55:33.215Z,34313
2019-02-15T11:56:03.255Z,34320
2019-02-15T11:56:33.277Z,34243
2019-02-15T11:57:03.261Z,34223
2019-02-15T11:57:33.287Z,34177
2019-02-15T11:58:03.359Z,34230
2019-02-15T11:58:33.384Z,34187
2019-02-15T11:59:03.413Z,34137
2019-02-15T11:59:33.449Z,34113
2019-02-15T12:00:03.477Z,34073
2019-02-15T12:00:33.892Z,34077
2019-02-15T12:01:03.559Z,34093
2019-02-15T12:01:33.580Z,34040
2019-02-15T12:02:05.986Z,34060
2019-02-15T12:02:33.637Z,34007
2019-02-15T12:03:03.681Z,33980
2019-02-15T12:03:33.702Z,34043
2019-02-15T12:04:03.718Z,33893
2019-02-15T12:04:33.759Z,33920
2019-02-15T12:05:03.777Z,33947
2019-02-15T12:05:33.988Z,33743
2019-02-15T12:06:04.088Z,33853
2019-02-15T12:06:33.874Z,33720
2019-02-15T12:07:04.785Z,33760
2019-02-15T12:07:33.957Z,33680
2019-02-15T12:08:03.967Z,33640
2019-02-15T12:08:34.082Z,33620
2019-02-15T12:09:04.050Z,33587
2019-02-15T12:09:34.068Z,33470
2019-02-15T12:10:04.100Z,33517
2019-02-15T12:10:34.124Z,33513
2019-02-15T12:11:04.263Z,33493
2019-02-15T12:11:34.155Z,33430
2019-02-15T12:12:10.345Z,33447
2019-02-15T12:12:34.257Z,33430
2019-02-15T12:13:04.295Z,33333
2019-02-15T12:13:34.317Z,33353
2019-02-15T12:14:04.339Z,33313
2019-02-15T12:14:34.378Z,33293
2019-02-15T12:15:04.471Z,33177
2019-02-15T12:15:34.407Z,33200
2019-02-15T12:16:04.485Z,33090
2019-02-15T12:16:34.511Z,33140
2019-02-15T12:17:05.751Z,33027
2019-02-15T12:17:34.522Z,33063
2019-02-15T12:18:04.592Z,32990
2019-02-15T12:18:34.635Z,32980
2019-02-15T12:19:04.603Z,32940
2019-02-15T12:19:34.639Z,32930
2019-02-15T12:20:04.686Z,32840
2019-02-15T12:20:34.715Z,32870
2019-02-15T12:21:04.800Z,32820
2019-02-15T12:21:34.760Z,32827
2019-02-15T12:22:04.817Z,32750
2019-02-15T12:22:34.844Z,32697
2019-02-15T12:23:04.868Z,32673
2019-02-15T12:23:34.899Z,32643
2019-02-15T12:24:04.974Z,32603
2019-02-15T12:24:35.153Z,32563
2019-02-15T12:25:04.979Z,32593
2019-02-15T12:25:35.023Z,32590
2019-02-15T12:26:05.088Z,32403
2019-02-15T12:26:35.077Z,32390
2019-02-15T12:27:05.132Z,32313
2019-02-15T12:27:35.163Z,32380
2019-02-15T12:28:05.192Z,32323
2019-02-15T12:28:35.223Z,32230
2019-02-15T12:29:05.227Z,32247
2019-02-15T12:29:35.332Z,32153
2019-02-15T12:30:05.284Z,32120
2019-02-15T12:30:35.373Z,32093
2019-02-15T12:31:05.447Z,32007
2019-02-15T12:31:35.429Z,32027
2019-02-15T12:32:05.435Z,31927
2019-02-15T12:33:05.523Z,31817
2019-02-15T12:33:35.551Z,31840
2019-02-15T12:34:07.204Z,31790
2019-02-15T12:35:05.647Z,31690
2019-02-15T12:35:35.670Z,31670
2019-02-15T12:36:05.710Z,31740
2019-02-15T12:36:35.747Z,31637
2019-02-15T12:37:05.727Z,31620
2019-02-15T12:37:35.795Z,31497
2019-02-15T12:38:05.780Z,31417
2019-02-15T12:38:35.811Z,31473
2019-02-15T12:39:05.915Z,31330
2019-02-15T12:39:35.914Z,31360
2019-02-15T12:40:05.903Z,31423
2019-02-15T12:40:35.945Z,31337
2019-02-15T12:41:06.041Z,31173
2019-02-15T12:41:36.073Z,31227
2019-02-15T12:42:06.074Z,31180
2019-02-15T12:42:36.105Z,31043
2019-02-15T12:43:06.166Z,31063
2019-02-15T12:43:36.171Z,31033
2019-02-15T12:44:06.149Z,30950
2019-02-15T12:44:36.229Z,30983